createdAt,value
2022-09-28T00:00:01.912Z,99.99
2022-09-28T00:01:01.869Z,99.99
2022-09-28T00:02:03.192Z,99.99
2022-09-28T00:03:01.784Z,99.99
2022-09-28T00:04:01.658Z,99.99
2022-09-28T00:05:01.580Z,99.99
2022-09-28T00:06:01.617Z,99.99
2022-09-28T00:07:01.465Z,99.99
2022-09-28T00:08:01.411Z,99.99
2022-09-28T00:09:01.328Z,99.99
2022-09-28T00:10:01.359Z,99.99
2022-09-28T00:11:01.176Z,99.99
2022-09-28T00:12:01.128Z,99.99
2022-09-28T00:13:01.063Z,99.99
2022-09-28T00:14:01.773Z,99.99
2022-09-28T00:15:00.928Z,99.99
2022-09-28T00:16:00.935Z,99.99
2022-09-28T00:17:00.800Z,99.99
2022-09-28T00:18:00.727Z,99.99
2022-09-28T00:19:00.667Z,99.99
2022-09-28T00:20:00.648Z,99.99
2022-09-28T00:21:00.567Z,99.99
2022-09-28T00:22:00.481Z,99.99
2022-09-28T00:23:00.411Z,99.99
2022-09-28T00:24:00.370Z,99.99
2022-09-28T00:25:00.268Z,99.99
2022-09-28T00:26:00.972Z,99.91
2022-09-28T00:27:00.138Z,99.71
2022-09-28T00:28:00.107Z,99.99
2022-09-28T00:29:00.015Z,99.99
2022-09-28T00:29:59.969Z,99.91
2022-09-28T00:31:00.474Z,99.81
2022-09-28T00:32:00.186Z,99.81
2022-09-28T00:32:59.772Z,99.81
2022-09-28T00:33:59.707Z,99.99
2022-09-28T00:34:59.655Z,99.99
2022-09-28T00:35:59.570Z,99.99
2022-09-28T00:36:59.508Z,99.99
2022-09-28T00:37:59.723Z,99.71
2022-09-28T00:38:59.377Z,99.60
2022-09-28T00:39:59.318Z,99.71
2022-09-28T00:40:59.369Z,99.81
2022-09-28T00:41:59.210Z,99.91
2022-09-28T00:42:59.118Z,99.99
2022-09-28T00:43:59.068Z,99.81
2022-09-28T00:44:58.989Z,99.81
2022-09-28T00:45:58.992Z,99.81
2022-09-28T00:46:58.843Z,99.81
2022-09-28T00:47:58.795Z,99.71
2022-09-28T00:48:58.764Z,99.30
2022-09-28T00:49:58.662Z,99.40
2022-09-28T00:50:58.594Z,99.60
2022-09-28T00:51:58.525Z,99.71
2022-09-28T00:52:58.458Z,99.81
2022-09-28T00:53:58.413Z,99.91
2022-09-28T00:54:58.344Z,99.91
2022-09-28T00:55:58.321Z,99.91
2022-09-28T00:56:58.197Z,99.99
2022-09-28T00:57:58.170Z,99.81
2022-09-28T00:58:58.032Z,99.91
2022-09-28T00:59:58.016Z,99.99
2022-09-28T01:00:57.993Z,99.99
2022-09-28T01:01:58.739Z,99.91
2022-09-28T01:02:57.842Z,99.81
2022-09-28T01:03:57.762Z,99.81
2022-09-28T01:04:57.712Z,99.71
2022-09-28T01:05:57.633Z,99.71
2022-09-28T01:06:57.567Z,99.71
2022-09-28T01:07:58.314Z,99.81
2022-09-28T01:08:57.437Z,99.91
2022-09-28T01:09:57.377Z,99.91
2022-09-28T01:10:57.305Z,99.99
2022-09-28T01:11:57.242Z,99.60
2022-09-28T01:12:57.184Z,99.60
2022-09-28T01:13:57.884Z,99.91
2022-09-28T01:14:57.054Z,99.99
2022-09-28T01:15:57.026Z,99.99
2022-09-28T01:16:56.906Z,99.99
2022-09-28T01:17:56.877Z,99.99
2022-09-28T01:18:56.779Z,99.99
2022-09-28T01:19:57.503Z,99.99
2022-09-28T01:20:56.646Z,99.99
2022-09-28T01:21:56.594Z,99.99
2022-09-28T01:22:56.540Z,99.99
2022-09-28T01:23:56.465Z,99.99
2022-09-28T01:24:56.390Z,99.99
2022-09-28T01:25:57.114Z,99.99
2022-09-28T01:26:56.272Z,99.99
2022-09-28T01:27:56.225Z,99.99
2022-09-28T01:28:56.175Z,99.91
2022-09-28T01:29:56.074Z,99.91
2022-09-28T01:30:56.015Z,99.99
2022-09-28T01:31:56.810Z,99.99
2022-09-28T01:32:55.875Z,99.99
2022-09-28T01:33:55.803Z,99.99
2022-09-28T01:34:55.746Z,99.99
2022-09-28T01:35:55.694Z,99.99
2022-09-28T01:36:55.629Z,99.99
2022-09-28T01:37:55.585Z,99.99
2022-09-28T01:38:55.484Z,99.99
2022-09-28T01:39:55.418Z,99.99
2022-09-28T01:40:55.409Z,99.99
2022-09-28T01:41:55.299Z,99.99
2022-09-28T01:42:55.242Z,99.99
2022-09-28T01:43:55.493Z,99.99
2022-09-28T01:44:55.093Z,99.99
2022-09-28T01:45:55.109Z,99.99
2022-09-28T01:46:54.974Z,99.99
2022-09-28T01:47:54.902Z,99.99
2022-09-28T01:48:54.845Z,99.99
2022-09-28T01:49:54.796Z,99.99
2022-09-28T01:50:54.716Z,99.99
2022-09-28T01:51:54.638Z,99.99
2022-09-28T01:52:54.588Z,99.99
2022-09-28T01:53:54.527Z,99.99
2022-09-28T01:54:54.457Z,99.99
2022-09-28T01:55:54.396Z,99.99
2022-09-28T01:56:54.332Z,99.99
2022-09-28T01:57:54.265Z,99.99
2022-09-28T01:58:54.204Z,99.99
2022-09-28T01:59:54.139Z,99.99
2022-09-28T02:00:54.100Z,99.99
2022-09-28T02:01:54.825Z,99.99
2022-09-28T02:02:53.995Z,99.99
2022-09-28T02:03:53.870Z,99.99
2022-09-28T02:04:53.797Z,99.99
2022-09-28T02:05:53.788Z,99.99
2022-09-28T02:06:53.676Z,99.99
2022-09-28T02:07:53.652Z,99.99
2022-09-28T02:08:53.559Z,99.99
2022-09-28T02:09:53.473Z,99.99
2022-09-28T02:10:53.431Z,99.99
2022-09-28T02:11:53.351Z,99.99
2022-09-28T02:12:53.286Z,99.99
2022-09-28T02:13:54.766Z,99.99
2022-09-28T02:14:53.150Z,99.99
2022-09-28T02:15:53.145Z,99.99
2022-09-28T02:16:53.029Z,99.99
2022-09-28T02:17:52.972Z,99.99
2022-09-28T02:18:52.856Z,99.99
2022-09-28T02:19:53.613Z,99.99
2022-09-28T02:20:52.784Z,99.99
2022-09-28T02:21:52.717Z,99.99
2022-09-28T02:22:52.608Z,99.99
2022-09-28T02:23:52.523Z,99.99
2022-09-28T02:24:52.449Z,99.99
2022-09-28T02:25:52.401Z,99.99
2022-09-28T02:26:52.343Z,99.99
2022-09-28T02:27:52.322Z,99.99
2022-09-28T02:28:52.262Z,99.99
2022-09-28T02:29:52.198Z,99.99
2022-09-28T02:30:52.130Z,99.99
2022-09-28T02:31:53.661Z,99.99
2022-09-28T02:32:52.008Z,99.99
2022-09-28T02:33:51.937Z,99.99
2022-09-28T02:34:51.856Z,99.99
2022-09-28T02:35:51.808Z,99.99
2022-09-28T02:36:51.740Z,99.99
2022-09-28T02:37:51.689Z,99.99
2022-09-28T02:38:51.613Z,99.99
2022-09-28T02:39:51.552Z,99.99
2022-09-28T02:40:51.554Z,99.99
2022-09-28T02:41:51.380Z,99.99
2022-09-28T02:42:51.357Z,99.99
2022-09-28T02:43:52.047Z,99.99
2022-09-28T02:44:51.214Z,99.99
2022-09-28T02:45:51.217Z,99.99
2022-09-28T02:46:51.099Z,99.99
2022-09-28T02:47:51.032Z,99.99
2022-09-28T02:49:04.988Z,99.99
2022-09-28T02:49:52.194Z,99.99
2022-09-28T02:50:50.835Z,99.99
2022-09-28T02:51:50.762Z,99.99
2022-09-28T02:52:50.710Z,99.99
2022-09-28T02:53:50.644Z,99.99
2022-09-28T02:54:50.571Z,99.99
2022-09-28T02:55:52.788Z,99.99
2022-09-28T02:56:50.447Z,99.99
2022-09-28T02:57:50.386Z,99.99
2022-09-28T02:58:50.316Z,99.99
2022-09-28T02:59:50.242Z,99.99
2022-09-28T03:00:50.233Z,99.99
2022-09-28T03:01:52.601Z,99.99
2022-09-28T03:02:50.048Z,99.99
2022-09-28T03:03:49.980Z,99.99
2022-09-28T03:04:49.929Z,99.99
2022-09-28T03:05:49.811Z,99.99
2022-09-28T03:06:49.809Z,99.99
2022-09-28T03:07:49.752Z,99.99
2022-09-28T03:08:49.659Z,99.99
2022-09-28T03:09:49.609Z,99.99
2022-09-28T03:10:49.553Z,99.99
2022-09-28T03:11:49.466Z,99.99
2022-09-28T03:12:49.418Z,99.99
2022-09-28T03:13:51.680Z,99.99
2022-09-28T03:14:49.274Z,99.99
2022-09-28T03:15:49.236Z,99.99
2022-09-28T03:16:49.156Z,99.99
2022-09-28T03:17:49.078Z,99.99
2022-09-28T03:18:49.022Z,99.99
2022-09-28T03:19:48.974Z,99.99
2022-09-28T03:20:48.889Z,99.99
2022-09-28T03:21:48.837Z,99.99
2022-09-28T03:23:06.065Z,99.99
2022-09-28T03:23:48.696Z,99.99
2022-09-28T03:24:48.621Z,99.99
2022-09-28T03:25:48.579Z,99.99
2022-09-28T03:26:48.519Z,99.99
2022-09-28T03:27:48.429Z,99.99
2022-09-28T03:28:48.376Z,99.99
2022-09-28T03:29:48.316Z,99.99
2022-09-28T03:30:48.254Z,99.99
2022-09-28T03:31:51.277Z,99.99
2022-09-28T03:32:48.105Z,99.99
2022-09-28T03:33:48.040Z,99.99
2022-09-28T03:34:47.971Z,99.99
2022-09-28T03:35:47.941Z,99.99
2022-09-28T03:36:47.861Z,99.99
2022-09-28T03:37:47.824Z,99.99
2022-09-28T03:38:47.726Z,99.99
2022-09-28T03:39:47.655Z,99.99
2022-09-28T03:40:47.667Z,99.99
2022-09-28T03:41:47.520Z,99.99
2022-09-28T03:42:47.462Z,99.99
2022-09-28T03:43:47.402Z,99.99
2022-09-28T03:44:47.353Z,99.99
2022-09-28T03:45:47.319Z,99.99
2022-09-28T03:46:47.201Z,99.99
2022-09-28T03:47:47.147Z,99.99
2022-09-28T03:48:47.066Z,99.99
2022-09-28T03:49:47.876Z,99.99
2022-09-28T03:50:46.951Z,99.99
2022-09-28T03:51:46.901Z,99.99
2022-09-28T03:52:46.816Z,99.99
2022-09-28T03:53:46.742Z,99.99
2022-09-28T03:54:49.252Z,99.99
2022-09-28T03:55:48.746Z,99.99
2022-09-28T03:56:46.569Z,99.99
2022-09-28T03:57:46.502Z,99.99
2022-09-28T03:58:46.427Z,99.99
2022-09-28T03:59:46.356Z,99.99
2022-09-28T04:00:46.378Z,99.99
2022-09-28T04:01:46.283Z,99.99
2022-09-28T04:02:46.167Z,99.99
2022-09-28T04:03:46.101Z,99.99
2022-09-28T04:04:46.048Z,99.99
2022-09-28T04:05:45.933Z,99.99
2022-09-28T04:06:45.853Z,99.99
2022-09-28T04:07:45.811Z,99.99
2022-09-28T04:08:45.791Z,99.99
2022-09-28T04:09:45.738Z,99.99
2022-09-28T04:10:45.660Z,99.99
2022-09-28T04:12:02.798Z,99.99
2022-09-28T04:12:45.520Z,99.99
2022-09-28T04:13:45.470Z,99.99
2022-09-28T04:14:45.391Z,99.99
2022-09-28T04:15:45.327Z,99.99
2022-09-28T04:16:45.393Z,99.99
2022-09-28T04:17:45.208Z,99.99
2022-09-28T04:18:45.132Z,99.99
2022-09-28T04:19:46.306Z,99.99
2022-09-28T04:20:45.013Z,99.99
2022-09-28T04:21:44.933Z,99.99
2022-09-28T04:22:45.426Z,99.99
2022-09-28T04:23:44.814Z,99.99
2022-09-28T04:24:44.853Z,99.99
2022-09-28T04:25:44.735Z,99.99
2022-09-28T04:26:44.648Z,99.99
2022-09-28T04:27:44.565Z,99.99
2022-09-28T04:28:44.526Z,99.99
2022-09-28T04:29:44.425Z,99.99
2022-09-28T04:30:44.387Z,99.99
2022-09-28T04:31:44.348Z,99.99
2022-09-28T04:32:44.223Z,99.99
2022-09-28T04:33:44.120Z,99.99
2022-09-28T04:34:44.586Z,99.99
2022-09-28T04:35:44.054Z,99.99
2022-09-28T04:36:43.987Z,99.99
2022-09-28T04:37:43.916Z,99.99
2022-09-28T04:38:59.100Z,99.99
2022-09-28T04:39:48.060Z,99.99
2022-09-28T04:40:43.821Z,99.99
2022-09-28T04:41:43.646Z,99.99
2022-09-28T04:42:43.617Z,99.99
2022-09-28T04:43:43.526Z,99.99
2022-09-28T04:44:43.457Z,99.99
2022-09-28T04:45:43.434Z,99.99
2022-09-28T04:46:43.320Z,99.99
2022-09-28T04:47:43.247Z,99.99
2022-09-28T04:48:43.211Z,99.99
2022-09-28T04:49:43.946Z,99.99
2022-09-28T04:50:43.067Z,99.99
2022-09-28T04:51:42.990Z,99.99
2022-09-28T04:52:42.943Z,99.99
2022-09-28T04:53:42.861Z,99.99
2022-09-28T04:54:42.799Z,99.99
2022-09-28T04:55:42.772Z,99.99
2022-09-28T04:56:42.663Z,99.99
2022-09-28T04:57:42.562Z,99.99
2022-09-28T04:58:42.541Z,99.99
2022-09-28T04:59:42.444Z,99.99
2022-09-28T05:00:42.441Z,99.99
2022-09-28T05:01:44.372Z,99.99
2022-09-28T05:02:42.305Z,99.99
2022-09-28T05:03:42.191Z,99.99
2022-09-28T05:04:42.110Z,99.99
2022-09-28T05:05:42.046Z,99.99
2022-09-28T05:06:42.014Z,99.99
2022-09-28T05:07:41.952Z,99.99
2022-09-28T05:08:41.858Z,99.99
2022-09-28T05:09:41.801Z,99.99
2022-09-28T05:10:41.755Z,99.99
2022-09-28T05:11:41.648Z,99.99
2022-09-28T05:12:41.629Z,99.99
2022-09-28T05:13:43.856Z,99.99
2022-09-28T05:14:41.459Z,99.99
2022-09-28T05:15:41.416Z,99.99
2022-09-28T05:16:41.367Z,99.99
2022-09-28T05:17:41.298Z,99.99
2022-09-28T05:18:41.242Z,99.99
2022-09-28T05:19:41.162Z,99.99
2022-09-28T05:20:41.085Z,99.99
2022-09-28T05:21:41.010Z,99.99
2022-09-28T05:22:40.991Z,99.99
2022-09-28T05:23:40.887Z,99.99
2022-09-28T05:24:40.855Z,99.99
2022-09-28T05:25:40.766Z,99.99
2022-09-28T05:26:40.709Z,99.99
2022-09-28T05:27:40.638Z,99.99
2022-09-28T05:28:40.553Z,99.99
2022-09-28T05:29:40.500Z,99.99
2022-09-28T05:30:40.452Z,99.99
2022-09-28T05:31:40.449Z,99.99
2022-09-28T05:32:40.298Z,99.99
2022-09-28T05:33:40.237Z,99.99
2022-09-28T05:34:40.263Z,99.99
2022-09-28T05:35:40.134Z,99.99
2022-09-28T05:36:40.060Z,99.99
2022-09-28T05:37:39.976Z,99.99
2022-09-28T05:38:39.965Z,99.99
2022-09-28T05:39:40.033Z,99.99
2022-09-28T05:40:39.792Z,99.99
2022-09-28T05:41:39.718Z,99.99
2022-09-28T05:42:39.643Z,99.99
2022-09-28T05:43:39.605Z,99.99
2022-09-28T05:44:39.554Z,99.99
2022-09-28T05:45:39.531Z,99.99
2022-09-28T05:46:39.377Z,99.99
2022-09-28T05:47:39.333Z,99.99
2022-09-28T05:48:39.249Z,99.99
2022-09-28T05:49:39.956Z,99.99
2022-09-28T05:50:39.139Z,99.99
2022-09-28T05:51:39.125Z,99.99
2022-09-28T05:52:39.009Z,99.99
2022-09-28T05:53:38.942Z,99.99
2022-09-28T05:54:38.864Z,99.99
2022-09-28T05:55:38.860Z,99.99
2022-09-28T05:56:38.750Z,99.99
2022-09-28T05:57:38.667Z,99.99
2022-09-28T05:58:38.608Z,99.99
2022-09-28T05:59:38.549Z,99.99
2022-09-28T06:00:38.477Z,99.99
2022-09-28T06:01:38.525Z,99.99
2022-09-28T06:02:38.382Z,99.99
2022-09-28T06:03:38.435Z,99.99
2022-09-28T06:04:38.232Z,99.99
2022-09-28T06:05:38.151Z,99.99
2022-09-28T06:06:38.115Z,99.99
2022-09-28T06:07:38.322Z,99.99
2022-09-28T06:08:37.955Z,99.99
2022-09-28T06:09:37.890Z,99.99
2022-09-28T06:10:37.839Z,99.99
2022-09-28T06:11:37.788Z,99.99
2022-09-28T06:12:37.696Z,99.99
2022-09-28T06:13:37.677Z,99.99
2022-09-28T06:14:37.568Z,99.99
2022-09-28T06:15:37.519Z,99.99
2022-09-28T06:16:43.011Z,99.99
2022-09-28T06:17:37.388Z,99.99
2022-09-28T06:18:37.323Z,99.99
2022-09-28T06:19:38.791Z,99.99
2022-09-28T06:20:37.179Z,99.99
2022-09-28T06:21:37.114Z,99.99
2022-09-28T06:22:37.064Z,99.99
2022-09-28T06:23:37.012Z,99.99
2022-09-28T06:24:36.938Z,99.99
2022-09-28T06:25:36.872Z,99.99
2022-09-28T06:26:36.790Z,99.99
2022-09-28T06:27:36.732Z,99.99
2022-09-28T06:28:36.665Z,99.99
2022-09-28T06:29:36.599Z,99.99
2022-09-28T06:30:36.574Z,99.99
2022-09-28T06:31:38.024Z,99.99
2022-09-28T06:32:36.403Z,99.99
2022-09-28T06:33:36.359Z,99.99
2022-09-28T06:34:36.294Z,99.99
2022-09-28T06:35:36.220Z,99.99
2022-09-28T06:36:36.163Z,99.99
2022-09-28T06:37:36.862Z,99.99
2022-09-28T06:38:36.019Z,99.99
2022-09-28T06:39:35.965Z,99.99
2022-09-28T06:40:35.960Z,99.99
2022-09-28T06:41:35.823Z,99.99
2022-09-28T06:42:35.764Z,99.99
2022-09-28T06:43:36.512Z,99.99
2022-09-28T06:44:35.629Z,99.99
2022-09-28T06:45:35.579Z,99.99
2022-09-28T06:46:35.567Z,99.99
2022-09-28T06:47:35.444Z,99.99
2022-09-28T06:48:35.390Z,99.99
2022-09-28T06:49:36.087Z,99.99
2022-09-28T06:50:35.242Z,99.99
2022-09-28T06:51:35.188Z,98.25
2022-09-28T06:52:35.132Z,97.42
2022-09-28T06:53:35.064Z,97.53
2022-09-28T06:54:34.983Z,97.53
2022-09-28T06:55:34.940Z,97.63
2022-09-28T06:56:34.874Z,97.28
2022-09-28T06:57:34.801Z,97.03
2022-09-28T06:58:34.761Z,96.67
2022-09-28T06:59:34.662Z,96.53
2022-09-28T07:00:34.608Z,97.08
2022-09-28T07:01:34.620Z,96.88
2022-09-28T07:02:34.577Z,95.79
2022-09-28T07:03:34.409Z,95.39
2022-09-28T07:04:34.339Z,95.32
2022-09-28T07:05:34.268Z,94.96
2022-09-28T07:06:34.217Z,95.68
2022-09-28T07:07:34.178Z,95.93
2022-09-28T07:08:34.079Z,95.93
2022-09-28T07:09:36.934Z,94.54
2022-09-28T07:10:33.959Z,95.56
2022-09-28T07:11:33.902Z,96.59
2022-09-28T07:12:33.822Z,97.20
2022-09-28T07:13:53.951Z,96.73
2022-09-28T07:14:46.705Z,97.05
2022-09-28T07:15:33.628Z,97.15
2022-09-28T07:16:58.770Z,97.77
2022-09-28T07:17:35.538Z,97.77
2022-09-28T07:18:33.460Z,97.45
2022-09-28T07:19:33.405Z,97.87
2022-09-28T07:20:37.987Z,97.97
2022-09-28T07:21:33.259Z,98.49
2022-09-28T07:22:41.948Z,98.90
2022-09-28T07:23:36.661Z,99.10
2022-09-28T07:24:33.072Z,98.59
2022-09-28T07:25:33.810Z,98.38
2022-09-28T07:26:32.935Z,98.79
2022-09-28T07:27:32.852Z,99.00
2022-09-28T07:28:32.829Z,99.31
2022-09-28T07:29:32.718Z,99.51
2022-09-28T07:30:32.760Z,98.69
2022-09-28T07:31:34.908Z,98.07
2022-09-28T07:32:32.558Z,98.28
2022-09-28T07:33:32.493Z,98.07
2022-09-28T07:34:32.438Z,97.87
2022-09-28T07:35:32.349Z,97.66
2022-09-28T07:36:32.305Z,97.97
2022-09-28T07:37:32.331Z,98.38
2022-09-28T07:38:32.180Z,98.44
2022-09-28T07:39:32.072Z,97.41
2022-09-28T07:40:32.178Z,97.31
2022-09-28T07:41:31.948Z,96.08
2022-09-28T07:42:31.948Z,95.05
2022-09-28T07:43:31.847Z,95.77
2022-09-28T07:44:31.779Z,96.59
2022-09-28T07:45:31.784Z,97.10
2022-09-28T07:46:31.634Z,97.52
2022-09-28T07:47:35.081Z,97.72
2022-09-28T07:48:31.508Z,96.08
2022-09-28T07:49:31.465Z,95.21
2022-09-28T07:50:31.381Z,95.31
2022-09-28T07:51:31.299Z,95.01
2022-09-28T07:52:31.240Z,94.39
2022-09-28T07:53:31.195Z,94.08
2022-09-28T07:54:31.128Z,95.93
2022-09-28T07:55:31.080Z,96.23
2022-09-28T07:56:30.980Z,96.85
2022-09-28T07:57:30.913Z,95.78
2022-09-28T07:58:30.866Z,94.76
2022-09-28T07:59:30.789Z,94.85
2022-09-28T08:00:33.972Z,95.47
2022-09-28T08:01:31.251Z,94.55
2022-09-28T08:02:30.643Z,94.96
2022-09-28T08:03:30.541Z,95.78
2022-09-28T08:04:30.482Z,95.93
2022-09-28T08:05:30.396Z,96.14
2022-09-28T08:06:30.330Z,95.10
2022-09-28T08:07:30.285Z,95.62
2022-09-28T08:08:30.218Z,96.14
2022-09-28T08:09:30.145Z,95.31
2022-09-28T08:10:30.078Z,95.62
2022-09-28T08:11:30.019Z,95.01
2022-09-28T08:12:29.963Z,96.44
2022-09-28T08:13:32.304Z,97.16
2022-09-28T08:14:29.839Z,97.27
2022-09-28T08:15:29.772Z,97.10
2022-09-28T08:16:29.812Z,96.18
2022-09-28T08:17:29.625Z,95.77
2022-09-28T08:18:29.563Z,95.77
2022-09-28T08:19:29.787Z,96.18
2022-09-28T08:20:29.470Z,94.02
2022-09-28T08:21:29.375Z,95.15
2022-09-28T08:22:29.301Z,95.67
2022-09-28T08:23:29.241Z,96.39
2022-09-28T08:24:29.172Z,96.48
2022-09-28T08:25:29.129Z,96.23
2022-09-28T08:26:29.063Z,95.31
2022-09-28T08:27:29.021Z,95.62
2022-09-28T08:28:28.934Z,96.75
2022-09-28T08:29:28.864Z,96.50
2022-09-28T08:30:28.864Z,94.34
2022-09-28T08:31:28.802Z,94.76
2022-09-28T08:32:28.671Z,96.56
2022-09-28T08:33:28.624Z,96.77
2022-09-28T08:34:28.529Z,95.39
2022-09-28T08:35:28.462Z,92.93
2022-09-28T08:36:28.413Z,92.72
2022-09-28T08:37:30.638Z,91.28
2022-09-28T08:38:28.291Z,90.26
2022-09-28T08:39:28.221Z,89.33
2022-09-28T08:40:28.225Z,91.59
2022-09-28T08:41:28.089Z,89.95
2022-09-28T08:42:28.083Z,91.18
2022-09-28T08:43:27.991Z,88.00
2022-09-28T08:44:27.901Z,89.43
2022-09-28T08:45:27.832Z,89.43
2022-09-28T08:46:27.799Z,91.08
2022-09-28T08:47:27.692Z,90.81
2022-09-28T08:48:27.624Z,89.78
2022-09-28T08:49:27.643Z,90.20
2022-09-28T08:50:27.494Z,93.27
2022-09-28T08:51:27.431Z,93.17
2022-09-28T08:52:27.363Z,93.68
2022-09-28T08:53:27.313Z,91.74
2022-09-28T08:54:27.252Z,91.84
2022-09-28T08:55:30.246Z,91.42
2022-09-28T08:56:27.124Z,89.58
2022-09-28T08:57:27.059Z,87.73
2022-09-28T08:58:27.002Z,91.08
2022-09-28T08:59:26.918Z,90.97
2022-09-28T09:00:26.862Z,88.57
2022-09-28T09:01:29.901Z,87.65
2022-09-28T09:02:26.772Z,89.39
2022-09-28T09:03:26.666Z,89.04
2022-09-28T09:04:26.635Z,88.23
2022-09-28T09:05:26.526Z,90.64
2022-09-28T09:06:26.479Z,85.52
2022-09-28T09:07:26.415Z,88.08
2022-09-28T09:08:26.338Z,87.57
2022-09-28T09:09:26.287Z,88.08
2022-09-28T09:10:26.207Z,89.78
2022-09-28T09:11:26.167Z,85.99
2022-09-28T09:12:26.128Z,89.06
2022-09-28T09:13:27.225Z,87.73
2022-09-28T09:14:25.977Z,87.02
2022-09-28T09:15:25.902Z,84.56
2022-09-28T09:16:25.856Z,84.56
2022-09-28T09:17:25.773Z,85.89
2022-09-28T09:18:25.722Z,86.51
2022-09-28T09:19:25.632Z,87.02
2022-09-28T09:20:25.597Z,85.89
2022-09-28T09:21:25.511Z,84.46
2022-09-28T09:22:25.442Z,84.15
2022-09-28T09:23:25.367Z,84.25
2022-09-28T09:24:25.304Z,86.30
2022-09-28T09:25:25.545Z,86.71
2022-09-28T09:26:26.252Z,86.44
2022-09-28T09:27:25.122Z,85.42
2022-09-28T09:28:25.052Z,83.98
2022-09-28T09:29:24.988Z,86.04
2022-09-28T09:30:27.006Z,85.31
2022-09-28T09:31:24.912Z,86.81
2022-09-28T09:32:24.814Z,85.17
2022-09-28T09:33:24.739Z,86.40
2022-09-28T09:34:24.659Z,85.17
2022-09-28T09:35:28.542Z,85.34
2022-09-28T09:36:24.534Z,85.64
2022-09-28T09:37:24.490Z,84.83
2022-09-28T09:38:24.470Z,84.22
2022-09-28T09:39:24.331Z,86.98
2022-09-28T09:40:24.317Z,83.39
2022-09-28T09:41:24.209Z,84.46
2022-09-28T09:42:24.142Z,84.56
2022-09-28T09:43:28.077Z,86.10
2022-09-28T09:44:24.045Z,84.50
2022-09-28T09:45:23.950Z,85.63
2022-09-28T09:46:23.968Z,84.60
2022-09-28T09:47:23.838Z,84.53
2022-09-28T09:48:23.757Z,83.51
2022-09-28T09:49:23.827Z,84.99
2022-09-28T09:50:23.630Z,84.58
2022-09-28T09:51:23.558Z,85.54
2022-09-28T09:52:23.554Z,87.90
2022-09-28T09:53:23.462Z,88.41
2022-09-28T09:54:23.382Z,89.33
2022-09-28T09:55:29.010Z,88.92
2022-09-28T09:56:23.263Z,89.23
2022-09-28T09:57:23.196Z,90.91
2022-09-28T09:58:23.132Z,90.16
2022-09-28T09:59:23.075Z,90.91
2022-09-28T10:00:22.985Z,90.61
2022-09-28T10:01:22.958Z,91.74
2022-09-28T10:02:22.921Z,91.74
2022-09-28T10:03:22.808Z,90.61
2022-09-28T10:04:22.740Z,90.81
2022-09-28T10:05:22.681Z,90.50
2022-09-28T10:06:22.593Z,91.33
2022-09-28T10:07:22.564Z,90.81
2022-09-28T10:08:22.485Z,91.84
2022-09-28T10:09:22.432Z,92.66
2022-09-28T10:10:22.768Z,92.25
2022-09-28T10:11:22.950Z,92.14
2022-09-28T10:12:22.210Z,90.61
2022-09-28T10:13:22.246Z,91.90
2022-09-28T10:14:22.124Z,93.44
2022-09-28T10:15:22.029Z,91.90
2022-09-28T10:16:21.974Z,93.29
2022-09-28T10:17:21.906Z,91.71
2022-09-28T10:18:21.840Z,89.31
2022-09-28T10:19:21.796Z,90.34
2022-09-28T10:20:21.700Z,88.56
2022-09-28T10:21:21.645Z,86.71
2022-09-28T10:22:21.601Z,85.89
2022-09-28T10:23:21.503Z,85.79
2022-09-28T10:24:21.459Z,85.99
2022-09-28T10:25:21.397Z,86.40
2022-09-28T10:26:24.788Z,86.10
2022-09-28T10:27:21.283Z,85.89
2022-09-28T10:28:21.180Z,85.24
2022-09-28T10:29:21.131Z,84.77
2022-09-28T10:30:21.060Z,84.87
2022-09-28T10:31:21.046Z,84.05
2022-09-28T10:32:20.934Z,85.99
2022-09-28T10:33:20.872Z,85.58
2022-09-28T10:34:20.796Z,84.36
2022-09-28T10:35:20.726Z,86.98
2022-09-28T10:36:20.682Z,88.41
2022-09-28T10:37:20.705Z,87.29
2022-09-28T10:38:20.542Z,84.72
2022-09-28T10:39:20.470Z,85.14
2022-09-28T10:40:20.471Z,85.28
2022-09-28T10:41:20.360Z,86.51
2022-09-28T10:42:20.288Z,86.61
2022-09-28T10:43:21.048Z,87.12
2022-09-28T10:44:20.171Z,87.63
2022-09-28T10:45:20.111Z,87.67
2022-09-28T10:46:20.111Z,89.00
2022-09-28T10:47:20.000Z,86.65
2022-09-28T10:48:19.908Z,89.51
2022-09-28T10:49:19.834Z,89.00
2022-09-28T10:50:19.784Z,89.25
2022-09-28T10:51:19.714Z,90.17
2022-09-28T10:52:19.629Z,88.84
2022-09-28T10:53:19.585Z,90.07
2022-09-28T10:54:19.762Z,89.15
2022-09-28T10:55:19.464Z,89.36
2022-09-28T10:56:19.391Z,87.20
2022-09-28T10:57:19.319Z,88.84
2022-09-28T10:58:19.246Z,88.02
2022-09-28T10:59:19.192Z,88.12
2022-09-28T11:00:19.120Z,87.20
2022-09-28T11:01:19.124Z,85.66
2022-09-28T11:02:19.033Z,86.90
2022-09-28T11:03:19.023Z,87.67
2022-09-28T11:04:19.019Z,87.26
2022-09-28T11:05:19.369Z,87.37
2022-09-28T11:06:18.754Z,87.37
2022-09-28T11:07:19.878Z,87.47
2022-09-28T11:08:18.624Z,88.59
2022-09-28T11:09:18.596Z,88.24
2022-09-28T11:10:18.512Z,87.12
2022-09-28T11:11:18.439Z,86.51
2022-09-28T11:12:18.360Z,86.10
2022-09-28T11:13:18.315Z,87.63
2022-09-28T11:14:18.265Z,87.84
2022-09-28T11:15:18.149Z,86.81
2022-09-28T11:16:18.156Z,87.08
2022-09-28T11:17:18.038Z,87.08
2022-09-28T11:18:17.958Z,86.05
2022-09-28T11:19:18.040Z,85.14
2022-09-28T11:20:17.847Z,85.34
2022-09-28T11:21:17.765Z,83.19
2022-09-28T11:22:17.703Z,83.64
2022-09-28T11:23:17.641Z,82.92
2022-09-28T11:24:19.270Z,83.13
2022-09-28T11:25:19.912Z,83.44
2022-09-28T11:26:18.805Z,84.83
2022-09-28T11:27:17.394Z,84.42
2022-09-28T11:28:17.314Z,84.11
2022-09-28T11:29:17.273Z,83.09
2022-09-28T11:30:17.229Z,83.50
2022-09-28T11:31:17.215Z,84.01
2022-09-28T11:32:17.059Z,81.76
2022-09-28T11:33:17.005Z,84.01
2022-09-28T11:34:17.088Z,83.19
2022-09-28T11:35:17.014Z,83.09
2022-09-28T11:36:16.821Z,83.81
2022-09-28T11:37:16.764Z,81.96
2022-09-28T11:38:16.670Z,81.76
2022-09-28T11:39:16.610Z,82.03
2022-09-28T11:40:16.688Z,82.64
2022-09-28T11:41:16.481Z,81.79
2022-09-28T11:42:16.728Z,82.91
2022-09-28T11:43:16.945Z,82.46
2022-09-28T11:44:16.294Z,82.46
2022-09-28T11:45:16.224Z,84.36
2022-09-28T11:46:16.282Z,81.20
2022-09-28T11:47:16.119Z,76.77
2022-09-28T11:48:16.021Z,77.79
2022-09-28T11:49:15.999Z,79.49
2022-09-28T11:50:18.958Z,77.21
2022-09-28T11:51:15.872Z,77.92
2022-09-28T11:52:15.770Z,76.39
2022-09-28T11:53:15.710Z,79.14
2022-09-28T11:54:15.791Z,78.50
2022-09-28T11:55:15.586Z,73.60
2022-09-28T11:56:15.521Z,77.89
2022-09-28T11:57:15.448Z,75.64
2022-09-28T11:58:15.398Z,74.62
2022-09-28T11:59:15.328Z,76.29
2022-09-28T12:00:15.317Z,77.62
2022-09-28T12:01:18.907Z,77.92
2022-09-28T12:02:15.211Z,78.88
2022-09-28T12:03:15.138Z,79.69
2022-09-28T12:04:14.993Z,79.22
2022-09-28T12:05:20.483Z,78.41
2022-09-28T12:06:14.874Z,78.91
2022-09-28T12:07:16.345Z,78.13
2022-09-28T12:08:14.744Z,78.75
2022-09-28T12:09:14.739Z,77.52
2022-09-28T12:10:14.679Z,76.81
2022-09-28T12:11:14.539Z,79.66
2022-09-28T12:12:14.486Z,78.17
2022-09-28T12:13:14.443Z,79.19
2022-09-28T12:14:14.397Z,78.38
2022-09-28T12:15:14.293Z,78.27
2022-09-28T12:17:19.241Z,80.05
2022-09-28T12:18:14.204Z,79.53
2022-09-28T12:19:14.089Z,80.90
2022-09-28T12:20:14.025Z,81.10
2022-09-28T12:21:13.895Z,81.82
2022-09-28T12:22:13.829Z,82.84
2022-09-28T12:23:13.778Z,81.51
2022-09-28T12:24:13.718Z,81.41
2022-09-28T12:25:16.059Z,83.05
2022-09-28T12:26:13.595Z,81.88
2022-09-28T12:27:13.505Z,82.29
2022-09-28T12:28:13.460Z,82.70
2022-09-28T12:29:13.477Z,81.99
2022-09-28T12:30:13.419Z,81.99
2022-09-28T12:31:13.331Z,81.48
2022-09-28T12:32:13.216Z,82.60
2022-09-28T12:33:13.129Z,80.76
2022-09-28T12:34:13.063Z,81.38
2022-09-28T12:35:13.001Z,81.27
2022-09-28T12:36:12.950Z,81.68
2022-09-28T12:37:12.913Z,82.05
2022-09-28T12:38:12.811Z,81.13
2022-09-28T12:39:30.938Z,82.87
2022-09-28T12:40:12.724Z,81.85
2022-09-28T12:41:12.623Z,81.54
2022-09-28T12:42:12.605Z,80.62
2022-09-28T12:43:15.807Z,79.19
2022-09-28T12:44:12.418Z,78.88
2022-09-28T12:45:12.362Z,80.42
2022-09-28T12:46:13.108Z,79.60
2022-09-28T12:47:12.261Z,78.48
2022-09-28T12:48:12.185Z,79.09
2022-09-28T12:51:11.984Z,77.49
2022-09-28T12:52:11.906Z,79.94
2022-09-28T12:53:11.831Z,79.84
2022-09-28T12:54:11.844Z,81.38